createdAt,value
2023-03-05T00:00:49.097Z,996.35
2023-03-05T00:01:49.098Z,996.33
2023-03-05T00:02:49.091Z,996.31
2023-03-05T00:03:49.067Z,996.32
2023-03-05T00:04:49.081Z,996.33
2023-03-05T00:05:49.045Z,996.26
2023-03-05T00:06:49.029Z,996.25
2023-03-05T00:07:49.015Z,996.28
2023-03-05T00:08:49.029Z,996.27
2023-03-05T00:09:49.001Z,996.25
2023-03-05T00:10:48.988Z,996.24
2023-03-05T00:11:49.001Z,996.23
2023-03-05T00:12:48.989Z,996.25
2023-03-05T00:13:48.978Z,996.25
2023-03-05T00:14:48.978Z,996.21
2023-03-05T00:15:49.016Z,996.28
2023-03-05T00:16:48.969Z,996.24
2023-03-05T00:17:48.948Z,996.26
2023-03-05T00:18:48.946Z,996.28
2023-03-05T00:19:48.933Z,996.28
2023-03-05T00:20:48.935Z,996.28
2023-03-05T00:21:48.939Z,996.22
2023-03-05T00:22:48.922Z,996.25
2023-03-05T00:23:48.912Z,996.23
2023-03-05T00:24:48.899Z,996.24
2023-03-05T00:25:48.893Z,996.23
2023-03-05T00:26:48.918Z,996.21
2023-03-05T00:27:48.879Z,996.23
2023-03-05T00:28:48.881Z,996.26
2023-03-05T00:29:48.876Z,996.21
2023-03-05T00:30:48.908Z,996.16
2023-03-05T00:31:48.886Z,996.13
2023-03-05T00:32:48.873Z,996.18
2023-03-05T00:33:48.910Z,996.15
2023-03-05T00:34:48.839Z,996.14
2023-03-05T00:35:48.870Z,996.11
2023-03-05T00:36:48.855Z,996.10
2023-03-05T00:37:48.847Z,996.15
2023-03-05T00:38:48.812Z,996.10
2023-03-05T00:39:48.816Z,996.09
2023-03-05T00:40:48.801Z,996.14
2023-03-05T00:41:48.797Z,996.15
2023-03-05T00:42:48.794Z,996.12
2023-03-05T00:43:48.797Z,996.11
2023-03-05T00:44:48.771Z,996.10
2023-03-05T00:45:48.764Z,996.06
2023-03-05T00:46:48.835Z,996.04
2023-03-05T00:47:48.749Z,996.05
2023-03-05T00:48:48.763Z,996.06
2023-03-05T00:49:48.742Z,996.02
2023-03-05T00:50:48.728Z,996.05
2023-03-05T00:51:48.723Z,996.05
2023-03-05T00:52:48.744Z,996.03
2023-03-05T00:53:48.706Z,996.04
2023-03-05T00:54:48.714Z,996.01
2023-03-05T00:55:48.688Z,996.01
2023-03-05T00:56:48.687Z,995.98
2023-03-05T00:57:48.686Z,995.96
2023-03-05T00:58:48.685Z,996.02
2023-03-05T00:59:48.690Z,995.99
2023-03-05T01:00:48.668Z,995.98
2023-03-05T01:01:49.133Z,995.99
2023-03-05T01:02:48.651Z,995.92
2023-03-05T01:03:48.681Z,995.92
2023-03-05T01:04:48.669Z,995.92
2023-03-05T01:05:48.629Z,995.86
2023-03-05T01:06:48.612Z,995.90
2023-03-05T01:07:48.607Z,995.85
2023-03-05T01:08:48.617Z,995.88
2023-03-05T01:09:48.617Z,995.85
2023-03-05T01:10:48.582Z,995.88
2023-03-05T01:11:49.583Z,995.85
2023-03-05T01:12:48.577Z,995.84
2023-03-05T01:13:48.556Z,995.83
2023-03-05T01:14:48.563Z,995.78
2023-03-05T01:15:48.586Z,995.80
2023-03-05T01:16:48.550Z,995.74
2023-03-05T01:17:48.529Z,995.68
2023-03-05T01:18:48.540Z,995.72
2023-03-05T01:19:48.554Z,995.72
2023-03-05T01:20:48.503Z,995.76
2023-03-05T01:21:48.497Z,995.64
2023-03-05T01:22:48.491Z,995.69
2023-03-05T01:23:48.484Z,995.72
2023-03-05T01:24:48.471Z,995.66
2023-03-05T01:25:48.484Z,995.67
2023-03-05T01:26:48.488Z,995.62
2023-03-05T01:27:48.458Z,995.61
2023-03-05T01:28:48.458Z,995.63
2023-03-05T01:29:48.434Z,995.60
2023-03-05T01:30:48.446Z,995.58
2023-03-05T01:31:48.497Z,995.60
2023-03-05T01:32:48.428Z,995.57
2023-03-05T01:33:48.418Z,995.63
2023-03-05T01:34:48.408Z,995.60
2023-03-05T01:35:48.499Z,995.55
2023-03-05T01:36:48.398Z,995.61
2023-03-05T01:37:48.392Z,995.56
2023-03-05T01:38:48.387Z,995.57
2023-03-05T01:39:48.373Z,995.57
2023-03-05T01:40:48.373Z,995.51
2023-03-05T01:41:48.357Z,995.56
2023-03-05T01:42:48.374Z,995.51
2023-03-05T01:43:48.356Z,995.51
2023-03-05T01:44:48.344Z,995.51
2023-03-05T01:45:48.357Z,995.51
2023-03-05T01:46:48.320Z,995.53
2023-03-05T01:47:49.356Z,995.53
2023-03-05T01:48:49.313Z,995.45
2023-03-05T01:49:48.310Z,995.45
2023-03-05T01:50:48.318Z,995.47
2023-03-05T01:51:48.294Z,995.44
2023-03-05T01:52:48.297Z,995.37
2023-03-05T01:53:48.298Z,995.35
2023-03-05T01:54:48.290Z,995.34
2023-03-05T01:55:48.277Z,995.34
2023-03-05T01:56:48.264Z,995.32
2023-03-05T01:57:48.277Z,995.36
2023-03-05T01:58:48.254Z,995.31
2023-03-05T01:59:48.237Z,995.33
2023-03-05T02:00:48.348Z,995.29
2023-03-05T02:01:48.234Z,995.24
2023-03-05T02:02:48.223Z,995.19
2023-03-05T02:03:48.311Z,995.24
2023-03-05T02:04:48.203Z,995.24
2023-03-05T02:05:48.199Z,995.24
2023-03-05T02:06:48.197Z,995.23
2023-03-05T02:07:48.175Z,995.23
2023-03-05T02:08:48.183Z,995.19
2023-03-05T02:09:48.171Z,995.19
2023-03-05T02:10:48.161Z,995.17
2023-03-05T02:11:48.156Z,995.12
2023-03-05T02:12:48.148Z,995.15
2023-03-05T02:13:48.144Z,995.13
2023-03-05T02:14:48.162Z,995.13
2023-03-05T02:15:48.127Z,995.13
2023-03-05T02:16:48.156Z,995.13
2023-03-05T02:17:48.110Z,995.11
2023-03-05T02:18:48.117Z,995.12
2023-03-05T02:19:48.156Z,995.11
2023-03-05T02:20:48.105Z,995.05
2023-03-05T02:21:48.083Z,995.07
2023-03-05T02:22:48.107Z,995.06
2023-03-05T02:23:48.072Z,995.06
2023-03-05T02:24:49.078Z,995.07
2023-03-05T02:25:48.070Z,995.07
2023-03-05T02:26:48.054Z,995.03
2023-03-05T02:27:48.055Z,995.03
2023-03-05T02:28:48.053Z,995.00
2023-03-05T02:29:48.027Z,994.99
2023-03-05T02:30:48.042Z,995.02
2023-03-05T02:31:48.066Z,994.98
2023-03-05T02:32:48.116Z,994.96
2023-03-05T02:33:48.024Z,994.94
2023-03-05T02:34:48.019Z,994.92
2023-03-05T02:35:48.072Z,994.95
2023-03-05T02:36:47.992Z,994.93
2023-03-05T02:37:47.994Z,994.85
2023-03-05T02:38:47.989Z,994.86
2023-03-05T02:39:47.979Z,994.87
2023-03-05T02:40:47.970Z,994.87
2023-03-05T02:41:47.948Z,994.79
2023-03-05T02:42:47.968Z,994.82
2023-03-05T02:43:47.946Z,994.75
2023-03-05T02:44:47.948Z,994.75
2023-03-05T02:45:47.984Z,994.77
2023-03-05T02:46:48.916Z,994.76
2023-03-05T02:47:47.941Z,994.80
2023-03-05T02:48:47.907Z,994.75
2023-03-05T02:49:47.899Z,994.76
2023-03-05T02:50:47.900Z,994.71
2023-03-05T02:51:47.903Z,994.76
2023-03-05T02:52:47.899Z,994.77
2023-03-05T02:53:47.873Z,994.75
2023-03-05T02:54:47.873Z,994.70
2023-03-05T02:55:47.866Z,994.71
2023-03-05T02:56:47.862Z,994.70
2023-03-05T02:57:47.847Z,994.69
2023-03-05T02:58:47.854Z,994.72
2023-03-05T02:59:47.910Z,994.75
2023-03-05T03:00:47.826Z,994.76
2023-03-05T03:01:47.820Z,994.71
2023-03-05T03:02:47.814Z,994.68
2023-03-05T03:03:47.809Z,994.74
2023-03-05T03:04:47.801Z,994.71
2023-03-05T03:05:47.804Z,994.68
2023-03-05T03:06:47.784Z,994.64
2023-03-05T03:07:47.776Z,994.62
2023-03-05T03:08:47.793Z,994.65
2023-03-05T03:09:47.767Z,994.58
2023-03-05T03:10:47.768Z,994.60
2023-03-05T03:11:47.757Z,994.54
2023-03-05T03:12:47.743Z,994.57
2023-03-05T03:13:47.817Z,994.55
2023-03-05T03:14:47.732Z,994.50
2023-03-05T03:15:47.728Z,994.52
2023-03-05T03:16:47.770Z,994.49
2023-03-05T03:17:47.720Z,994.47
2023-03-05T03:18:47.759Z,994.51
2023-03-05T03:19:47.708Z,994.52
2023-03-05T03:20:47.693Z,994.50
2023-03-05T03:21:47.687Z,994.46
2023-03-05T03:22:47.685Z,994.48
2023-03-05T03:23:47.679Z,994.43
2023-03-05T03:24:47.690Z,994.43
2023-03-05T03:25:47.662Z,994.50
2023-03-05T03:26:47.656Z,994.43
2023-03-05T03:27:47.648Z,994.39
2023-03-05T03:28:47.635Z,994.36
2023-03-05T03:29:47.638Z,994.28
2023-03-05T03:30:47.645Z,994.34
2023-03-05T03:31:47.632Z,994.29
2023-03-05T03:32:47.612Z,994.29
2023-03-05T03:33:47.609Z,994.26
2023-03-05T03:34:47.589Z,994.26
2023-03-05T03:35:47.694Z,994.23
2023-03-05T03:36:47.585Z,994.27
2023-03-05T03:37:47.576Z,994.22
2023-03-05T03:38:47.577Z,994.27
2023-03-05T03:39:47.568Z,994.25
2023-03-05T03:40:47.575Z,994.25
2023-03-05T03:41:47.573Z,994.21
2023-03-05T03:42:47.545Z,994.20
2023-03-05T03:43:47.548Z,994.22
2023-03-05T03:44:47.534Z,994.17
2023-03-05T03:45:47.593Z,994.15
2023-03-05T03:46:47.532Z,994.16
2023-03-05T03:47:47.529Z,994.12
2023-03-05T03:48:47.505Z,994.11
2023-03-05T03:49:47.497Z,994.11
2023-03-05T03:50:47.481Z,993.98
2023-03-05T03:51:47.497Z,994.01
2023-03-05T03:52:47.478Z,994.04
2023-03-05T03:53:47.584Z,994.03
2023-03-05T03:54:47.519Z,994.05
2023-03-05T03:55:47.482Z,994.03
2023-03-05T03:56:47.495Z,994.02
2023-03-05T03:57:47.477Z,994.04
2023-03-05T03:58:47.439Z,994.01
2023-03-05T03:59:47.438Z,993.97
2023-03-05T04:00:47.434Z,993.92
2023-03-05T04:01:47.419Z,993.96
2023-03-05T04:02:47.476Z,993.95
2023-03-05T04:03:47.411Z,993.90
2023-03-05T04:04:47.404Z,993.92
2023-03-05T04:05:47.391Z,993.92
2023-03-05T04:06:47.391Z,993.88
2023-03-05T04:07:47.382Z,993.91
2023-03-05T04:08:47.374Z,993.91
2023-03-05T04:09:47.431Z,993.91
2023-03-05T04:10:47.359Z,993.96
2023-03-05T04:11:48.347Z,993.97
2023-03-05T04:12:47.359Z,993.95
2023-03-05T04:13:47.343Z,994.00
2023-03-05T04:14:47.344Z,994.05
2023-03-05T04:15:47.334Z,994.03
2023-03-05T04:16:47.311Z,994.05
2023-03-05T04:17:47.332Z,994.06
2023-03-05T04:18:47.312Z,994.01
2023-03-05T04:19:47.303Z,994.03
2023-03-05T04:20:47.285Z,994.02
2023-03-05T04:21:47.359Z,994.00
2023-03-05T04:22:47.286Z,994.06
2023-03-05T04:23:47.282Z,994.02
2023-03-05T04:24:47.279Z,993.97
2023-03-05T04:25:47.260Z,993.92
2023-03-05T04:26:47.248Z,993.96
2023-03-05T04:27:47.287Z,993.93
2023-03-05T04:28:47.257Z,993.95
2023-03-05T04:29:47.232Z,993.89
2023-03-05T04:30:47.257Z,993.92
2023-03-05T04:31:47.225Z,993.93
2023-03-05T04:32:47.222Z,993.92
2023-03-05T04:33:47.224Z,993.88
2023-03-05T04:34:47.206Z,993.91
2023-03-05T04:35:47.208Z,993.82
2023-03-05T04:36:47.189Z,993.81
2023-03-05T04:37:47.192Z,993.85
2023-03-05T04:38:47.188Z,993.83
2023-03-05T04:39:47.177Z,993.78
2023-03-05T04:40:47.167Z,993.74
2023-03-05T04:41:47.151Z,993.83
2023-03-05T04:42:47.150Z,993.80
2023-03-05T04:43:47.155Z,993.74
2023-03-05T04:44:47.206Z,993.77
2023-03-05T04:45:47.138Z,993.75
2023-03-05T04:46:47.204Z,993.73
2023-03-05T04:47:47.118Z,993.69
2023-03-05T04:48:47.103Z,993.69
2023-03-05T04:49:47.128Z,993.67
2023-03-05T04:50:47.094Z,993.67
2023-03-05T04:51:47.092Z,993.65
2023-03-05T04:52:47.086Z,993.69
2023-03-05T04:53:47.067Z,993.68
2023-03-05T04:54:47.061Z,993.65
2023-03-05T04:55:47.057Z,993.67
2023-03-05T04:56:47.026Z,993.67
2023-03-05T04:57:47.056Z,993.65
2023-03-05T04:58:47.032Z,993.67
2023-03-05T04:59:47.014Z,993.58
2023-03-05T05:00:47.007Z,993.59
2023-03-05T05:01:47.121Z,993.61
2023-03-05T05:02:47.158Z,993.64
2023-03-05T05:03:47.008Z,993.58
2023-03-05T05:04:46.990Z,993.59
2023-03-05T05:05:47.013Z,993.52
2023-03-05T05:06:46.990Z,993.54
2023-03-05T05:07:46.984Z,993.57
2023-03-05T05:08:47.010Z,993.50
2023-03-05T05:09:46.997Z,993.52
2023-03-05T05:10:47.007Z,993.59
2023-03-05T05:11:46.950Z,993.49
2023-03-05T05:12:46.966Z,993.53
2023-03-05T05:13:46.943Z,993.50
2023-03-05T05:14:46.922Z,993.48
2023-03-05T05:15:46.917Z,993.49
2023-03-05T05:16:46.911Z,993.50
2023-03-05T05:17:46.911Z,993.46
2023-03-05T05:18:46.898Z,993.49
2023-03-05T05:19:46.888Z,993.41
2023-03-05T05:20:46.865Z,993.41
2023-03-05T05:21:46.882Z,993.48
2023-03-05T05:22:46.880Z,993.46
2023-03-05T05:23:46.853Z,993.47
2023-03-05T05:24:46.862Z,993.45
2023-03-05T05:25:46.850Z,993.44
2023-03-05T05:26:46.840Z,993.42
2023-03-05T05:27:46.841Z,993.47
2023-03-05T05:28:46.841Z,993.43
2023-03-05T05:29:46.821Z,993.43
2023-03-05T05:30:46.825Z,993.41
2023-03-05T05:31:46.852Z,993.41
2023-03-05T05:32:46.818Z,993.44
2023-03-05T05:33:49.582Z,993.39
2023-03-05T05:34:46.791Z,993.40
2023-03-05T05:35:46.857Z,993.43
2023-03-05T05:36:46.776Z,993.42
2023-03-05T05:37:46.783Z,993.37
2023-03-05T05:38:46.768Z,993.39
2023-03-05T05:39:46.754Z,993.36
2023-03-05T05:40:46.756Z,993.35
2023-03-05T05:41:46.745Z,993.38
2023-03-05T05:42:46.733Z,993.34
2023-03-05T05:43:46.736Z,993.37
2023-03-05T05:44:46.718Z,993.40
2023-03-05T05:45:47.874Z,993.39
2023-03-05T05:46:46.755Z,993.37
2023-03-05T05:47:46.704Z,993.31
2023-03-05T05:48:46.723Z,993.38
2023-03-05T05:49:46.698Z,993.36
2023-03-05T05:50:46.689Z,993.38
2023-03-05T05:51:46.679Z,993.38
2023-03-05T05:52:46.676Z,993.33
2023-03-05T05:53:46.688Z,993.36
2023-03-05T05:54:46.661Z,993.34
2023-03-05T05:55:46.652Z,993.34
2023-03-05T05:56:46.641Z,993.36
2023-03-05T05:57:46.634Z,993.37
2023-03-05T05:58:46.636Z,993.33
2023-03-05T05:59:46.637Z,993.29
2023-03-05T06:00:46.627Z,993.29
2023-03-05T06:01:46.636Z,993.32
2023-03-05T06:02:46.646Z,993.27
2023-03-05T06:03:46.590Z,993.25
2023-03-05T06:04:46.606Z,993.20
2023-03-05T06:05:46.589Z,993.29
2023-03-05T06:06:46.578Z,993.32
2023-03-05T06:07:46.555Z,993.21
2023-03-05T06:08:46.586Z,993.30
2023-03-05T06:09:46.565Z,993.29
2023-03-05T06:10:46.543Z,993.27
2023-03-05T06:11:46.541Z,993.36
2023-03-05T06:12:46.538Z,993.29
2023-03-05T06:13:46.539Z,993.33
2023-03-05T06:14:46.530Z,993.32
2023-03-05T06:15:46.523Z,993.29
2023-03-05T06:16:46.528Z,993.29
2023-03-05T06:17:46.528Z,993.30
2023-03-05T06:18:46.501Z,993.30
2023-03-05T06:19:46.496Z,993.36
2023-03-05T06:20:46.498Z,993.32
2023-03-05T06:21:46.483Z,993.29
2023-03-05T06:22:46.475Z,993.28
2023-03-05T06:23:46.468Z,993.31
2023-03-05T06:24:46.472Z,993.23
2023-03-05T06:25:46.452Z,993.30
2023-03-05T06:26:46.462Z,993.32
2023-03-05T06:27:46.441Z,993.32
2023-03-05T06:28:46.438Z,993.33
2023-03-05T06:29:46.428Z,993.33
2023-03-05T06:30:46.535Z,993.34
2023-03-05T06:31:46.437Z,993.36
2023-03-05T06:32:46.404Z,993.30
2023-03-05T06:33:46.387Z,993.29
2023-03-05T06:34:46.382Z,993.25
2023-03-05T06:35:46.456Z,993.28
2023-03-05T06:36:46.372Z,993.23
2023-03-05T06:37:46.374Z,993.29
2023-03-05T06:38:48.400Z,993.29
2023-03-05T06:39:46.360Z,993.26
2023-03-05T06:40:46.452Z,993.24
2023-03-05T06:41:46.347Z,993.23
2023-03-05T06:42:46.327Z,993.27
2023-03-05T06:43:46.317Z,993.35
2023-03-05T06:44:48.361Z,993.31
2023-03-05T06:45:47.370Z,993.34
2023-03-05T06:46:46.319Z,993.31
2023-03-05T06:47:46.299Z,993.32
2023-03-05T06:48:46.290Z,993.35
2023-03-05T06:49:46.283Z,993.36
2023-03-05T06:50:46.278Z,993.31
2023-03-05T06:51:46.283Z,993.26
2023-03-05T06:52:46.266Z,993.34
2023-03-05T06:53:48.312Z,993.37
2023-03-05T06:54:46.241Z,993.32
2023-03-05T06:55:46.242Z,993.31
2023-03-05T06:56:46.240Z,993.33
2023-03-05T06:57:46.246Z,993.28
2023-03-05T06:58:46.298Z,993.32
2023-03-05T06:59:46.220Z,993.32
2023-03-05T07:00:46.207Z,993.34
2023-03-05T07:01:46.211Z,993.36
2023-03-05T07:02:46.271Z,993.32
2023-03-05T07:03:46.176Z,993.30
2023-03-05T07:04:46.188Z,993.37
2023-03-05T07:05:46.180Z,993.37
2023-03-05T07:06:46.173Z,993.36
2023-03-05T07:07:46.163Z,993.35
2023-03-05T07:08:46.188Z,993.33
2023-03-05T07:09:46.156Z,993.37
2023-03-05T07:10:46.141Z,993.33
2023-03-05T07:11:46.135Z,993.32
2023-03-05T07:12:46.126Z,993.30
2023-03-05T07:13:46.146Z,993.34
2023-03-05T07:14:46.115Z,993.35
2023-03-05T07:15:46.121Z,993.36
2023-03-05T07:16:46.095Z,993.36
2023-03-05T07:17:46.090Z,993.32
2023-03-05T07:18:46.084Z,993.28
2023-03-05T07:19:46.084Z,993.22
2023-03-05T07:20:46.132Z,993.28
2023-03-05T07:21:46.067Z,993.24
2023-03-05T07:22:46.056Z,993.20
2023-03-05T07:23:46.046Z,993.10
2023-03-05T07:24:46.067Z,993.12
2023-03-05T07:25:46.046Z,993.10
2023-03-05T07:26:47.942Z,993.11
2023-03-05T07:27:46.063Z,993.07
2023-03-05T07:28:46.043Z,993.15
2023-03-05T07:29:46.011Z,993.07
2023-03-05T07:30:46.108Z,993.00
2023-03-05T07:31:46.018Z,992.96
2023-03-05T07:32:45.994Z,992.95
2023-03-05T07:33:45.996Z,992.91
2023-03-05T07:34:45.981Z,992.89
2023-03-05T07:35:46.009Z,992.88
2023-03-05T07:36:45.988Z,992.89
2023-03-05T07:37:45.965Z,992.87
2023-03-05T07:38:45.957Z,992.86
2023-03-05T07:39:47.264Z,992.82
2023-03-05T07:40:46.943Z,992.79
2023-03-05T07:41:45.935Z,992.88
2023-03-05T07:42:45.939Z,992.85
2023-03-05T07:43:45.907Z,992.87
2023-03-05T07:44:45.913Z,992.81
2023-03-05T07:45:45.950Z,992.88
2023-03-05T07:46:45.897Z,992.94
2023-03-05T07:47:45.904Z,992.83
2023-03-05T07:48:45.895Z,992.87
2023-03-05T07:49:45.880Z,992.87
2023-03-05T07:50:45.889Z,992.85
2023-03-05T07:51:45.881Z,992.86
2023-03-05T07:52:45.849Z,992.81
2023-03-05T07:53:45.858Z,992.87
2023-03-05T07:54:45.837Z,992.82
2023-03-05T07:55:45.845Z,992.80
2023-03-05T07:56:45.840Z,992.85
2023-03-05T07:57:45.842Z,992.77
2023-03-05T07:58:45.811Z,992.74
2023-03-05T07:59:45.810Z,992.73
2023-03-05T08:00:45.812Z,992.75
2023-03-05T08:01:45.813Z,992.72
2023-03-05T08:02:45.810Z,992.79
2023-03-05T08:03:45.827Z,992.64
2023-03-05T08:04:45.780Z,992.71
2023-03-05T08:05:46.146Z,992.69
2023-03-05T08:06:45.816Z,992.70
2023-03-05T08:07:45.746Z,992.74
2023-03-05T08:08:45.755Z,992.71
2023-03-05T08:09:45.749Z,992.70
2023-03-05T08:10:45.724Z,992.63
2023-03-05T08:11:45.728Z,992.69
2023-03-05T08:12:45.729Z,992.68
2023-03-05T08:13:45.723Z,992.64
2023-03-05T08:14:45.734Z,992.70
2023-03-05T08:15:45.732Z,992.61
2023-03-05T08:16:47.880Z,992.62
2023-03-05T08:17:46.690Z,992.56
2023-03-05T08:18:45.676Z,992.58
2023-03-05T08:19:45.688Z,992.54
2023-03-05T08:20:45.664Z,992.56
2023-03-05T08:21:45.663Z,992.58
2023-03-05T08:22:45.679Z,992.54
2023-03-05T08:23:45.685Z,992.55
2023-03-05T08:24:45.645Z,992.58
2023-03-05T08:25:45.639Z,992.50
2023-03-05T08:26:45.637Z,992.47
2023-03-05T08:27:45.630Z,992.50
2023-03-05T08:28:45.631Z,992.55
2023-03-05T08:29:45.617Z,992.49
2023-03-05T08:30:45.600Z,992.46
2023-03-05T08:31:45.599Z,992.50
2023-03-05T08:32:45.602Z,992.48
2023-03-05T08:33:45.584Z,992.57
2023-03-05T08:34:45.594Z,992.56
2023-03-05T08:35:45.602Z,992.60
2023-03-05T08:36:45.558Z,992.63
2023-03-05T08:37:45.559Z,992.62
2023-03-05T08:38:45.551Z,992.61
2023-03-05T08:39:45.600Z,992.63
2023-03-05T08:40:45.539Z,992.61
2023-03-05T08:41:45.535Z,992.64
2023-03-05T08:42:45.520Z,992.65
2023-03-05T08:43:45.521Z,992.67
2023-03-05T08:44:45.524Z,992.70
2023-03-05T08:45:45.511Z,992.71
2023-03-05T08:46:45.582Z,992.76
2023-03-05T08:47:45.496Z,992.74
2023-03-05T08:48:45.500Z,992.69
2023-03-05T08:49:45.483Z,992.65
2023-03-05T08:50:45.472Z,992.67
2023-03-05T08:51:45.467Z,992.72
2023-03-05T08:52:45.469Z,992.68
2023-03-05T08:53:45.454Z,992.61
2023-03-05T08:54:45.453Z,992.61
2023-03-05T08:55:45.452Z,992.59
2023-03-05T08:56:45.436Z,992.58
2023-03-05T08:57:45.449Z,992.53
2023-03-05T08:58:45.430Z,992.58
2023-03-05T08:59:46.415Z,992.57
2023-03-05T09:00:45.412Z,992.53
2023-03-05T09:01:45.507Z,992.52
2023-03-05T09:02:45.429Z,992.47
2023-03-05T09:03:45.397Z,992.43
2023-03-05T09:04:45.386Z,992.40
2023-03-05T09:05:45.367Z,992.38
2023-03-05T09:06:46.402Z,992.33
2023-03-05T09:07:45.352Z,992.35
2023-03-05T09:08:45.364Z,992.35
2023-03-05T09:09:45.344Z,992.29
2023-03-05T09:10:45.342Z,992.24
2023-03-05T09:11:45.334Z,992.22
2023-03-05T09:12:45.323Z,992.24
2023-03-05T09:13:45.326Z,992.15
2023-03-05T09:14:45.309Z,992.21
2023-03-05T09:15:45.311Z,992.17
2023-03-05T09:16:45.367Z,992.18
2023-03-05T09:17:45.289Z,992.18
2023-03-05T09:18:45.291Z,992.09
2023-03-05T09:19:45.276Z,992.11
2023-03-05T09:20:45.268Z,992.10
2023-03-05T09:21:45.263Z,992.10
2023-03-05T09:22:45.244Z,992.11
2023-03-05T09:23:45.246Z,992.13
2023-03-05T09:24:45.243Z,992.10
2023-03-05T09:25:45.215Z,992.07
2023-03-05T09:26:45.246Z,992.10
2023-03-05T09:27:45.218Z,992.07
2023-03-05T09:28:45.210Z,992.04
2023-03-05T09:29:45.209Z,992.06
2023-03-05T09:30:45.201Z,992.01
2023-03-05T09:31:45.248Z,991.97
2023-03-05T09:32:45.201Z,992.00
2023-03-05T09:33:45.177Z,992.04
2023-03-05T09:34:45.158Z,992.00
2023-03-05T09:35:45.199Z,991.97
2023-03-05T09:36:45.164Z,992.05
2023-03-05T09:37:45.148Z,991.99
2023-03-05T09:38:45.137Z,992.07
2023-03-05T09:39:45.133Z,992.05
2023-03-05T09:40:45.137Z,992.06
2023-03-05T09:41:45.106Z,992.07
2023-03-05T09:42:45.189Z,992.10
2023-03-05T09:43:45.099Z,992.04
2023-03-05T09:44:45.150Z,992.08
2023-03-05T09:45:45.131Z,992.03
2023-03-05T09:46:45.082Z,992.03
2023-03-05T09:47:45.099Z,992.09
2023-03-05T09:48:45.077Z,992.06
2023-03-05T09:49:45.057Z,992.09
2023-03-05T09:50:45.057Z,992.03
2023-03-05T09:51:45.063Z,992.06
2023-03-05T09:52:45.070Z,992.00
2023-03-05T09:53:45.048Z,992.06
2023-03-05T09:54:45.035Z,992.03
2023-03-05T09:55:45.031Z,992.04
2023-03-05T09:56:45.007Z,992.03
2023-03-05T09:57:45.011Z,992.02
2023-03-05T09:58:45.006Z,992.04
2023-03-05T09:59:45.007Z,992.00
2023-03-05T10:00:44.987Z,992.00
2023-03-05T10:01:44.973Z,992.03
2023-03-05T10:02:45.007Z,992.04
2023-03-05T10:03:44.979Z,992.00
2023-03-05T10:04:44.980Z,992.01
2023-03-05T10:05:44.947Z,991.89
2023-03-05T10:06:44.949Z,991.96
2023-03-05T10:07:44.937Z,991.90
2023-03-05T10:08:44.925Z,991.95
2023-03-05T10:09:44.969Z,991.93
2023-03-05T10:10:44.926Z,991.86
2023-03-05T10:11:44.908Z,991.87
2023-03-05T10:12:45.900Z,991.81
2023-03-05T10:13:44.884Z,991.83
2023-03-05T10:14:44.901Z,991.77
2023-03-05T10:15:44.877Z,991.84
2023-03-05T10:16:44.889Z,991.78
2023-03-05T10:17:44.882Z,991.82
2023-03-05T10:18:44.861Z,991.82
2023-03-05T10:19:44.860Z,991.75
2023-03-05T10:20:44.853Z,991.82
2023-03-05T10:21:44.857Z,991.77
2023-03-05T10:22:44.831Z,991.84
2023-03-05T10:23:44.826Z,991.80
2023-03-05T10:24:44.836Z,991.85
2023-03-05T10:25:44.827Z,991.81
2023-03-05T10:26:44.799Z,991.70
2023-03-05T10:27:45.797Z,991.80
2023-03-05T10:28:44.794Z,991.86
2023-03-05T10:29:44.780Z,991.83
2023-03-05T10:30:44.778Z,991.77
2023-03-05T10:31:44.884Z,991.80
2023-03-05T10:32:44.790Z,991.75
2023-03-05T10:33:44.755Z,991.72
2023-03-05T10:34:44.752Z,991.76
2023-03-05T10:35:44.780Z,991.69
2023-03-05T10:36:44.732Z,991.67
2023-03-05T10:37:44.738Z,991.69
2023-03-05T10:38:44.861Z,991.68
2023-03-05T10:39:44.793Z,991.70
2023-03-05T10:40:44.705Z,991.61
2023-03-05T10:41:44.701Z,991.57
2023-03-05T10:42:44.684Z,991.60
2023-03-05T10:43:44.693Z,991.61
2023-03-05T10:44:44.684Z,991.56
2023-03-05T10:45:44.763Z,991.56
2023-03-05T10:46:44.668Z,991.58
2023-03-05T10:47:44.656Z,991.46
2023-03-05T10:48:44.678Z,991.49
2023-03-05T10:49:44.645Z,991.55
2023-03-05T10:50:44.645Z,991.51
2023-03-05T10:51:44.660Z,991.47
2023-03-05T10:52:44.621Z,991.48
2023-03-05T10:53:44.613Z,991.53
2023-03-05T10:54:44.612Z,991.52
2023-03-05T10:55:44.608Z,991.53
2023-03-05T10:56:44.602Z,991.53
2023-03-05T10:57:44.601Z,991.53
2023-03-05T10:58:44.591Z,991.49
2023-03-05T10:59:44.578Z,991.44
2023-03-05T11:00:44.591Z,991.50
2023-03-05T11:01:44.577Z,991.51
2023-03-05T11:02:44.633Z,991.53
2023-03-05T11:03:45.548Z,991.47
2023-03-05T11:04:44.565Z,991.49
2023-03-05T11:05:44.547Z,991.55
2023-03-05T11:06:44.541Z,991.45
2023-03-05T11:07:44.513Z,991.46
2023-03-05T11:08:44.509Z,991.45
2023-03-05T11:09:44.502Z,991.47
2023-03-05T11:10:44.513Z,991.48
2023-03-05T11:11:44.496Z,991.44
2023-03-05T11:12:44.469Z,991.47
2023-03-05T11:13:44.501Z,991.48
2023-03-05T11:14:44.471Z,991.42
2023-03-05T11:15:44.483Z,991.39
2023-03-05T11:16:44.448Z,991.36
2023-03-05T11:17:44.443Z,991.42
2023-03-05T11:18:44.467Z,991.40
2023-03-05T11:19:44.432Z,991.41
2023-03-05T11:20:44.420Z,991.31
2023-03-05T11:21:44.413Z,991.29
2023-03-05T11:22:44.398Z,991.37
2023-03-05T11:23:44.395Z,991.37
2023-03-05T11:24:44.416Z,991.28
2023-03-05T11:25:44.418Z,991.29
2023-03-05T11:26:44.373Z,991.28
2023-03-05T11:27:44.398Z,991.27
2023-03-05T11:28:44.354Z,991.25
2023-03-05T11:29:44.378Z,991.24
2023-03-05T11:30:44.349Z,991.28
2023-03-05T11:31:44.336Z,991.32
2023-03-05T11:32:44.321Z,991.33
2023-03-05T11:33:44.326Z,991.31
2023-03-05T11:34:44.328Z,991.32
2023-03-05T11:35:44.413Z,991.31
2023-03-05T11:36:44.301Z,991.30
2023-03-05T11:37:44.294Z,991.30
2023-03-05T11:38:44.305Z,991.25
2023-03-05T11:39:44.315Z,991.25
2023-03-05T11:40:44.291Z,991.25
2023-03-05T11:41:44.262Z,991.25
2023-03-05T11:42:44.324Z,991.25
2023-03-05T11:43:44.242Z,991.29
2023-03-05T11:44:44.258Z,991.25
2023-03-05T11:45:44.232Z,991.22
2023-03-05T11:46:44.258Z,991.18
2023-03-05T11:47:44.221Z,991.17
2023-03-05T11:48:44.208Z,991.15
2023-03-05T11:49:44.196Z,991.19
2023-03-05T11:50:44.279Z,991.08
2023-03-05T11:51:44.215Z,991.13
2023-03-05T11:52:44.177Z,991.12
2023-03-05T11:53:44.173Z,991.07
2023-03-05T11:54:44.188Z,991.05
2023-03-05T11:55:44.168Z,991.01
2023-03-05T11:56:44.173Z,990.97
2023-03-05T11:57:44.153Z,990.93
2023-03-05T11:58:44.150Z,990.89
2023-03-05T11:59:44.142Z,990.89
2023-03-05T12:00:44.151Z,990.83
2023-03-05T12:01:44.148Z,990.81
2023-03-05T12:02:44.165Z,990.78
2023-03-05T12:03:44.166Z,990.76
2023-03-05T12:04:44.116Z,990.73
2023-03-05T12:05:44.109Z,990.74
2023-03-05T12:06:44.520Z,990.69
2023-03-05T12:07:44.087Z,990.72
2023-03-05T12:08:44.080Z,990.79
2023-03-05T12:09:44.248Z,990.75
2023-03-05T12:10:44.409Z,990.70
2023-03-05T12:11:44.691Z,990.79
2023-03-05T12:12:44.596Z,990.74
2023-03-05T12:13:44.056Z,990.69
2023-03-05T12:14:44.047Z,990.66
2023-03-05T12:15:44.054Z,990.67
2023-03-05T12:16:44.031Z,990.60
2023-03-05T12:17:44.592Z,990.62
2023-03-05T12:18:44.010Z,990.63
2023-03-05T12:19:43.994Z,990.55
2023-03-05T12:20:44.360Z,990.52
2023-03-05T12:21:44.540Z,990.58
2023-03-05T12:22:44.546Z,990.56
2023-03-05T12:23:44.335Z,990.62
2023-03-05T12:24:43.981Z,990.53
2023-03-05T12:25:44.259Z,990.49
2023-03-05T12:26:44.279Z,990.55
2023-03-05T12:27:44.044Z,990.44
2023-03-05T12:28:44.377Z,990.48